Dream Diva — 3EKW6 — position and weather

sailwx.info

Track history (hours):
 
Tides and Currents Weather Stations Pressure Air Temp Water Temp Dewpoint Dewpoint Depression Visibility Wind Speed Wind Dir Waves Ship Positions

Dream Diva

Last reported at 2014-Oct-13 10:32 UTC. Time now 2014-Oct-23 17:15 UTC.
Position N 32°35' W 133°03'.
Warning: this ship's position is 10 days out of date.

Length 186 m; draft 7 m.

Type: Cargo ship. MMSI: 372856000.

Date/timePositionNaut miles runAvg speedWind from/ knotsBaromVisibWave heightAir tempDewpointWater temp
2014-Oct-13 10:32N 32°35' W 133°03'2017.0
2014-Oct-13 09:22N 32°35' W 132°40'1417.1
2014-Oct-13 08:33N 32°35' W 132°23'1717.4
2014-Oct-13 07:33N 32°34' W 132°03'1817.5
2014-Oct-13 06:33N 32°34' W 131°42'1717.4
2014-Oct-13 05:33N 32°33' W 131°21'1717.5
2014-Oct-13 04:33N 32°33' W 131°01'1717.3
2014-Oct-13 03:33N 32°33' W 130°40'1717.2
2014-Oct-13 02:33N 32°32' W 130°20'1717.3
2014-Oct-13 01:33N 32°33' W 129°59'2017.4
2014-Oct-13 00:25N 32°33' W 129°36'8417.2
2014-Oct-12 19:33N 32°34' W 127°56'2017.1
2014-Oct-12 18:24N 32°33' W 127°33'1517.5
2014-Oct-12 17:33N 32°33' W 127°15'8917.5
2014-Oct-12 12:26N 32°34' W 125°30'1817.4
2014-Oct-12 11:25N 32°34' W 125°09'1517.5
2014-Oct-12 10:33N 32°35' W 124°51'1917.2
2014-Oct-12 09:29N 32°35' W 124°29'2117.3
2014-Oct-12 08:16N 32°35' W 124°04'8117.1
2014-Oct-12 03:31N 32°35' W 122°27'1515.2
2014-Oct-12 02:33N 32°35' W 122°10'1716.6
2014-Oct-12 01:33N 32°35' W 121°50'1716.7
2014-Oct-12 00:33N 32°36' W 121°30'1716.9
2014-Oct-11 23:33N 32°37' W 121°10'1716.7
2014-Oct-11 22:33N 32°37' W 120°51'3416.9
2014-Oct-11 20:33N 32°37' W 120°10'2017.6
2014-Oct-11 19:24N 32°37' W 119°46'1517.7
2014-Oct-11 18:33N 32°37' W 119°28'1818.0
2014-Oct-11 17:33N 32°37' W 119°07'1616.2
2014-Oct-11 16:33N 32°37' W 118°48'1515.4
2014-Oct-11 15:33N 32°36' W 118°30'1615.5
2014-Oct-11 14:33N 32°36' W 118°11'1515.3
2014-Oct-11 13:33N 32°37' W 117°53'1515.1
2014-Oct-11 12:34N 32°38' W 117°35'1414.2
2014-Oct-11 11:34N 32°37' W 117°19'8 7.5
2014-Oct-11 10:34N 32°43' W 117°13'6 6.0
2014-Oct-11 09:33N 32°39' W 117°07'0 0.0
2014-Oct-11 08:33N 32°39' W 117°07'0 0.0
2014-Oct-11 07:33N 32°39' W 117°07'0 0.0
2014-Oct-11 06:33N 32°39' W 117°07'0 0.0
2014-Oct-11 05:33N 32°39' W 117°07'0 0.0
2014-Oct-11 04:33N 32°39' W 117°07'0 0.0
2014-Oct-11 03:33N 32°39' W 117°07'0 0.0
2014-Oct-11 02:33N 32°39' W 117°07'0 0.0
2014-Oct-11 01:33N 32°39' W 117°07'0 0.0
2014-Oct-11 00:33N 32°39' W 117°07'0 0.1
2014-Oct-10 23:33N 32°39' W 117°07'6 6.0
2014-Oct-10 22:33N 32°42' W 117°14'6 6.4
2014-Oct-10 21:33N 32°36' W 117°18'6 5.6
2014-Oct-10 20:33N 32°35' W 117°24'6 6.0
2014-Oct-10 19:33N 32°32' W 117°30'8 7.8
2014-Oct-10 18:33N 32°29' W 117°39'1312.9
2014-Oct-10 17:34N 32°25' W 117°53'1514.9
2014-Oct-10 16:33N 32°21' W 118°10'1515.2
2014-Oct-10 15:33N 32°21' W 118°28'1615.6
2014-Oct-10 14:34N 32°20' W 118°47'1615.8
2014-Oct-10 13:34N 32°18' W 119°05'1615.6
2014-Oct-10 12:33N 32°15' W 119°24'1615.6
2014-Oct-10 11:33N 32°13' W 119°42'1616.1
2014-Oct-10 10:33N 32°13' W 120°01'2216.2
2014-Oct-10 09:10N 32°12' W 120°27'1016.1
2014-Oct-10 08:33N 32°11' W 120°39'1616.0
2014-Oct-10 07:33N 32°10' W 120°58'1616.1
2014-Oct-10 06:33N 32°08' W 121°17'1615.9
2014-Oct-10 05:33N 32°07' W 121°36'1414.0
2014-Oct-10 04:33N 32°10' W 121°52'1616.3
2014-Oct-10 03:33N 32°25' W 122°01'1616.4
2014-Oct-10 02:34N 32°39' W 122°10'1616.2
2014-Oct-10 01:34N 32°54' W 122°17'1616.5
2014-Oct-10 00:34N 33°08' W 122°27'1716.7
2014-Oct-09 23:33N 33°22' W 122°38'1716.8
2014-Oct-09 22:33N 33°37' W 122°49'1616.2
2014-Oct-09 21:34N 33°51' W 122°58'1615.9
2014-Oct-09 20:33N 34°05' W 123°08'1615.9
2014-Oct-09 19:33N 34°19' W 123°16'1615.6
2014-Oct-09 18:34N 34°33' W 123°24'1615.7
2014-Oct-09 17:34N 34°47' W 123°33'1616.1
2014-Oct-09 16:34N 35°01' W 123°42'1616.4
2014-Oct-09 15:34N 35°16' W 123°51'1616.2
2014-Oct-09 14:34N 35°30' W 124°00'1616.3
2014-Oct-09 13:33N 35°44' W 124°10'1616.1
2014-Oct-09 12:33N 35°58' W 124°20'1615.8
2014-Oct-09 11:33N 36°12' W 124°29'1615.9
2014-Oct-09 10:34N 36°26' W 124°38'1615.9
2014-Oct-09 09:33N 36°40' W 124°47'1616.2
2014-Oct-09 08:33N 36°55' W 124°57'1616.2
2014-Oct-09 07:34N 37°10' W 125°04'1616.2
2014-Oct-09 06:33N 37°26' W 125°08'1616.2
2014-Oct-09 05:34N 37°42' W 125°12'1616.2
2014-Oct-09 04:33N 37°57' W 125°17'1616.2
2014-Oct-09 03:34N 38°13' W 125°23'1616.2
2014-Oct-09 02:33N 38°28' W 125°29'1816.7
2014-Oct-09 01:30N 38°46' W 125°34'1617.5
2014-Oct-09 00:34N 39°02' W 125°40'1716.3
2014-Oct-08 23:31N 39°18' W 125°46'3816.1
2014-Oct-08 21:11N 39°54' W 125°58'1116.1
2014-Oct-08 20:31N 40°05' W 126°00'2316.0
2014-Oct-08 19:07N 40°27' W 126°01'4316.4
2014-Oct-08 16:31N 41°10' W 126°01'24016.1
2014-Oct-08 01:33N 45°10' W 126°01'1716.0
2014-Oct-08 00:30N 45°27' W 126°00'1516.2
2014-Oct-07 23:34N 45°42' W 126°00'1816.3
2014-Oct-07 22:29N 46°00' W 126°00'1516.4
2014-Oct-07 21:33N 46°15' W 126°01'1816.7
2014-Oct-07 20:28N 46°33' W 126°01'1516.8
2014-Oct-07 19:33N 46°48' W 126°01'1716.8
2014-Oct-07 18:33N 47°06' W 126°01'1616.6
2014-Oct-07 17:33N 47°22' W 126°00'1616.1
2014-Oct-07 16:34N 47°38' W 125°60'1616.4
2014-Oct-07 15:34N 47°54' W 126°01'1616.0
2014-Oct-07 14:33N 48°07' W 125°45'1717.1
2014-Oct-07 13:33N 48°16' W 125°24'1716.7
2014-Oct-07 12:33N 48°27' W 125°05'1616.3
2014-Oct-07 11:33N 48°30' W 124°41'1817.5
2014-Oct-07 10:33N 48°23' W 124°17'1716.6
2014-Oct-07 09:34N 48°17' W 123°53'1616.0
2014-Oct-07 08:34N 48°15' W 123°30'1010.3
2014-Oct-07 07:33N 48°09' W 123°17'1616.1
2014-Oct-07 06:33N 48°12' W 122°53'1615.9
2014-Oct-07 05:33N 48°01' W 122°36'1716.8
2014-Oct-07 04:34N 47°45' W 122°26'1717.1
2014-Oct-07 03:33N 47°28' W 122°24'1211.5
2014-Oct-07 02:33N 47°17' W 122°25'2 1.2
2014-Oct-07 01:07N 47°16' W 122°23'0 0.0
2014-Oct-07 00:31N 47°16' W 122°23'0 0.0
2014-Oct-06 23:31N 47°16' W 122°23'0 0.0
2014-Oct-06 22:28N 47°16' W 122°23'0 0.0
2014-Oct-06 21:28N 47°16' W 122°23'0 0.0
2014-Oct-06 20:25N 47°16' W 122°23'0 0.0
2014-Oct-06 19:28N 47°16' W 122°23'0 0.0
2014-Oct-06 18:31N 47°16' W 122°23'0 0.0
2014-Oct-06 17:31N 47°16' W 122°23'0 0.0
2014-Oct-06 15:10N 47°16' W 122°23'0 0.0
2014-Oct-06 14:07N 47°16' W 122°23'0 0.0
2014-Oct-06 13:28N 47°16' W 122°23'0 0.0
2014-Oct-06 10:04N 47°16' W 122°23'0 0.0
2014-Oct-06 09:16N 47°16' W 122°23'0 0.0
2014-Oct-06 06:28N 47°16' W 122°23'0 0.0
2014-Oct-06 03:28N 47°16' W 122°23'2 2.4
2014-Oct-06 02:33N 47°17' W 122°25'8 8.3
2014-Oct-06 01:33N 47°25' W 122°23'1716.5
2014-Oct-06 00:33N 47°41' W 122°28'1615.8
2014-Oct-05 23:33N 47°57' W 122°33'1615.6
2014-Oct-05 22:33N 48°10' W 122°46'1817.4
2014-Oct-05 21:32N 48°12' W 123°12'9 9.3
2014-Oct-05 20:33N 48°11' W 123°26'4 3.8
2014-Oct-05 19:33N 48°13' W 123°31'9 9.4
2014-Oct-05 18:33N 48°13' W 123°45'10 9.8
2014-Oct-05 17:33N 48°15' W 123°60'1211.5
2014-Oct-05 16:33N 48°20' W 124°15'1111.6
2014-Oct-05 15:33N 48°24' W 124°31'1010.5
2014-Oct-05 14:33N 48°29' W 124°46'1413.7
2014-Oct-05 13:34N 48°28' W 125°06'1414.0
2014-Oct-05 12:33N 48°22' W 125°25'1414.3
2014-Oct-05 11:33N 48°13' W 125°42'  
Track history (hours):
 
Tides and Currents Weather Stations Pressure Air Temp Water Temp Dewpoint Dewpoint Depression Visibility Wind Speed Wind Dir Waves Ship Positions

Dream Diva

Last reported at 2014-Oct-13 10:32 UTC. Time now 2014-Oct-23 17:15 UTC.
Position N 32°35' W 133°03'.
Warning: this ship's position is 10 days out of date.

Length 186 m; draft 7 m.

Type: Cargo ship. MMSI: 372856000.

Date/timePositionNaut miles runAvg speedWind from/ knotsBaromVisibWave heightAir tempDewpointWater temp
2014-Oct-13 10:32N 32°35' W 133°03'2017.0
2014-Oct-13 09:22N 32°35' W 132°40'1417.1
2014-Oct-13 08:33N 32°35' W 132°23'1717.4
2014-Oct-13 07:33N 32°34' W 132°03'1817.5
2014-Oct-13 06:33N 32°34' W 131°42'1717.4
2014-Oct-13 05:33N 32°33' W 131°21'1717.5
2014-Oct-13 04:33N 32°33' W 131°01'1717.3
2014-Oct-13 03:33N 32°33' W 130°40'1717.2
2014-Oct-13 02:33N 32°32' W 130°20'1717.3
2014-Oct-13 01:33N 32°33' W 129°59'2017.4
2014-Oct-13 00:25N 32°33' W 129°36'8417.2
2014-Oct-12 19:33N 32°34' W 127°56'2017.1
2014-Oct-12 18:24N 32°33' W 127°33'1517.5
2014-Oct-12 17:33N 32°33' W 127°15'8917.5
2014-Oct-12 12:26N 32°34' W 125°30'1817.4
2014-Oct-12 11:25N 32°34' W 125°09'1517.5
2014-Oct-12 10:33N 32°35' W 124°51'1917.2
2014-Oct-12 09:29N 32°35' W 124°29'2117.3
2014-Oct-12 08:16N 32°35' W 124°04'8117.1
2014-Oct-12 03:31N 32°35' W 122°27'1515.2
2014-Oct-12 02:33N 32°35' W 122°10'1716.6
2014-Oct-12 01:33N 32°35' W 121°50'1716.7
2014-Oct-12 00:33N 32°36' W 121°30'1716.9
2014-Oct-11 23:33N 32°37' W 121°10'1716.7
2014-Oct-11 22:33N 32°37' W 120°51'3416.9
2014-Oct-11 20:33N 32°37' W 120°10'2017.6
2014-Oct-11 19:24N 32°37' W 119°46'1517.7
2014-Oct-11 18:33N 32°37' W 119°28'1818.0
2014-Oct-11 17:33N 32°37' W 119°07'1616.2
2014-Oct-11 16:33N 32°37' W 118°48'1515.4
2014-Oct-11 15:33N 32°36' W 118°30'1615.5
2014-Oct-11 14:33N 32°36' W 118°11'1515.3
2014-Oct-11 13:33N 32°37' W 117°53'1515.1
2014-Oct-11 12:34N 32°38' W 117°35'1414.2
2014-Oct-11 11:34N 32°37' W 117°19'8 7.5
2014-Oct-11 10:34N 32°43' W 117°13'6 6.0
2014-Oct-11 09:33N 32°39' W 117°07'0 0.0
2014-Oct-11 08:33N 32°39' W 117°07'0 0.0
2014-Oct-11 07:33N 32°39' W 117°07'0 0.0
2014-Oct-11 06:33N 32°39' W 117°07'0 0.0
2014-Oct-11 05:33N 32°39' W 117°07'0 0.0
2014-Oct-11 04:33N 32°39' W 117°07'0 0.0
2014-Oct-11 03:33N 32°39' W 117°07'0 0.0
2014-Oct-11 02:33N 32°39' W 117°07'0 0.0
2014-Oct-11 01:33N 32°39' W 117°07'0 0.0
2014-Oct-11 00:33N 32°39' W 117°07'0 0.1
2014-Oct-10 23:33N 32°39' W 117°07'6 6.0
2014-Oct-10 22:33N 32°42' W 117°14'6 6.4
2014-Oct-10 21:33N 32°36' W 117°18'6 5.6
2014-Oct-10 20:33N 32°35' W 117°24'6 6.0
2014-Oct-10 19:33N 32°32' W 117°30'8 7.8
2014-Oct-10 18:33N 32°29' W 117°39'1312.9
2014-Oct-10 17:34N 32°25' W 117°53'1514.9
2014-Oct-10 16:33N 32°21' W 118°10'1515.2
2014-Oct-10 15:33N 32°21' W 118°28'1615.6
2014-Oct-10 14:34N 32°20' W 118°47'1615.8
2014-Oct-10 13:34N 32°18' W 119°05'1615.6
2014-Oct-10 12:33N 32°15' W 119°24'1615.6
2014-Oct-10 11:33N 32°13' W 119°42'1616.1
2014-Oct-10 10:33N 32°13' W 120°01'2216.2
2014-Oct-10 09:10N 32°12' W 120°27'1016.1
2014-Oct-10 08:33N 32°11' W 120°39'1616.0
2014-Oct-10 07:33N 32°10' W 120°58'1616.1
2014-Oct-10 06:33N 32°08' W 121°17'1615.9
2014-Oct-10 05:33N 32°07' W 121°36'1414.0
2014-Oct-10 04:33N 32°10' W 121°52'1616.3
2014-Oct-10 03:33N 32°25' W 122°01'1616.4
2014-Oct-10 02:34N 32°39' W 122°10'1616.2
2014-Oct-10 01:34N 32°54' W 122°17'1616.5
2014-Oct-10 00:34N 33°08' W 122°27'1716.7
2014-Oct-09 23:33N 33°22' W 122°38'1716.8
2014-Oct-09 22:33N 33°37' W 122°49'1616.2
2014-Oct-09 21:34N 33°51' W 122°58'1615.9
2014-Oct-09 20:33N 34°05' W 123°08'1615.9
2014-Oct-09 19:33N 34°19' W 123°16'1615.6
2014-Oct-09 18:34N 34°33' W 123°24'1615.7
2014-Oct-09 17:34N 34°47' W 123°33'1616.1
2014-Oct-09 16:34N 35°01' W 123°42'1616.4
2014-Oct-09 15:34N 35°16' W 123°51'1616.2
2014-Oct-09 14:34N 35°30' W 124°00'1616.3
2014-Oct-09 13:33N 35°44' W 124°10'1616.1
2014-Oct-09 12:33N 35°58' W 124°20'1615.8
2014-Oct-09 11:33N 36°12' W 124°29'1615.9
2014-Oct-09 10:34N 36°26' W 124°38'1615.9
2014-Oct-09 09:33N 36°40' W 124°47'1616.2
2014-Oct-09 08:33N 36°55' W 124°57'1616.2
2014-Oct-09 07:34N 37°10' W 125°04'1616.2
2014-Oct-09 06:33N 37°26' W 125°08'1616.2
2014-Oct-09 05:34N 37°42' W 125°12'1616.2
2014-Oct-09 04:33N 37°57' W 125°17'1616.2
2014-Oct-09 03:34N 38°13' W 125°23'1616.2
2014-Oct-09 02:33N 38°28' W 125°29'1816.7
2014-Oct-09 01:30N 38°46' W 125°34'1617.5
2014-Oct-09 00:34N 39°02' W 125°40'1716.3
2014-Oct-08 23:31N 39°18' W 125°46'3816.1
2014-Oct-08 21:11N 39°54' W 125°58'1116.1
2014-Oct-08 20:31N 40°05' W 126°00'2316.0
2014-Oct-08 19:07N 40°27' W 126°01'4316.4
2014-Oct-08 16:31N 41°10' W 126°01'24016.1
2014-Oct-08 01:33N 45°10' W 126°01'1716.0
2014-Oct-08 00:30N 45°27' W 126°00'1516.2
2014-Oct-07 23:34N 45°42' W 126°00'1816.3
2014-Oct-07 22:29N 46°00' W 126°00'1516.4
2014-Oct-07 21:33N 46°15' W 126°01'1816.7
2014-Oct-07 20:28N 46°33' W 126°01'1516.8
2014-Oct-07 19:33N 46°48' W 126°01'1716.8
2014-Oct-07 18:33N 47°06' W 126°01'1616.6
2014-Oct-07 17:33N 47°22' W 126°00'1616.1
2014-Oct-07 16:34N 47°38' W 125°60'1616.4
2014-Oct-07 15:34N 47°54' W 126°01'1616.0
2014-Oct-07 14:33N 48°07' W 125°45'1717.1
2014-Oct-07 13:33N 48°16' W 125°24'1716.7
2014-Oct-07 12:33N 48°27' W 125°05'1616.3
2014-Oct-07 11:33N 48°30' W 124°41'1817.5
2014-Oct-07 10:33N 48°23' W 124°17'1716.6
2014-Oct-07 09:34N 48°17' W 123°53'1616.0
2014-Oct-07 08:34N 48°15' W 123°30'1010.3
2014-Oct-07 07:33N 48°09' W 123°17'1616.1
2014-Oct-07 06:33N 48°12' W 122°53'1615.9
2014-Oct-07 05:33N 48°01' W 122°36'1716.8
2014-Oct-07 04:34N 47°45' W 122°26'1717.1
2014-Oct-07 03:33N 47°28' W 122°24'1211.5
2014-Oct-07 02:33N 47°17' W 122°25'2 1.2
2014-Oct-07 01:07N 47°16' W 122°23'0 0.0
2014-Oct-07 00:31N 47°16' W 122°23'0 0.0
2014-Oct-06 23:31N 47°16' W 122°23'0 0.0
2014-Oct-06 22:28N 47°16' W 122°23'0 0.0
2014-Oct-06 21:28N 47°16' W 122°23'0 0.0
2014-Oct-06 20:25N 47°16' W 122°23'0 0.0
2014-Oct-06 19:28N 47°16' W 122°23'0 0.0
2014-Oct-06 18:31N 47°16' W 122°23'0 0.0
2014-Oct-06 17:31N 47°16' W 122°23'0 0.0
2014-Oct-06 15:10N 47°16' W 122°23'0 0.0
2014-Oct-06 14:07N 47°16' W 122°23'0 0.0
2014-Oct-06 13:28N 47°16' W 122°23'0 0.0
2014-Oct-06 10:04N 47°16' W 122°23'0 0.0
2014-Oct-06 09:16N 47°16' W 122°23'0 0.0
2014-Oct-06 06:28N 47°16' W 122°23'0 0.0
2014-Oct-06 03:28N 47°16' W 122°23'2 2.4
2014-Oct-06 02:33N 47°17' W 122°25'8 8.3
2014-Oct-06 01:33N 47°25' W 122°23'1716.5
2014-Oct-06 00:33N 47°41' W 122°28'1615.8
2014-Oct-05 23:33N 47°57' W 122°33'1615.6
2014-Oct-05 22:33N 48°10' W 122°46'1817.4
2014-Oct-05 21:32N 48°12' W 123°12'9 9.3
2014-Oct-05 20:33N 48°11' W 123°26'4 3.8
2014-Oct-05 19:33N 48°13' W 123°31'9 9.4
2014-Oct-05 18:33N 48°13' W 123°45'10 9.8
2014-Oct-05 17:33N 48°15' W 123°60'1211.5
2014-Oct-05 16:33N 48°20' W 124°15'1111.6
2014-Oct-05 15:33N 48°24' W 124°31'1010.5
2014-Oct-05 14:33N 48°29' W 124°46'1413.7
2014-Oct-05 13:34N 48°28' W 125°06'1414.0
2014-Oct-05 12:33N 48°22' W 125°25'1414.3
2014-Oct-05 11:33N 48°13' W 125°42'  

Dump ship's entire track history